sensor_id;sensor_type;location;lat;lon;timestamp;pressure;altitude;pressure_sealevel;temperature;humidity
60646;BME280;46462;32.608;-117.032;2023-04-25T00:00:44;99054.72;;;25.64;42.06
60646;BME280;46462;32.608;-117.032;2023-04-25T00:03:15;99052.53;;;25.66;42.04
60646;BME280;46462;32.608;-117.032;2023-04-25T00:05:46;99047.82;;;25.67;42.03
60646;BME280;46462;32.608;-117.032;2023-04-25T00:08:17;99046.03;;;25.70;41.93
60646;BME280;46462;32.608;-117.032;2023-04-25T00:10:47;99045.07;;;25.75;41.81
60646;BME280;46462;32.608;-117.032;2023-04-25T00:13:18;99046.20;;;25.76;41.76
60646;BME280;46462;32.608;-117.032;2023-04-25T00:15:49;99045.41;;;25.77;41.77
60646;BME280;46462;32.608;-117.032;2023-04-25T00:18:20;99052.92;;;25.75;41.81
60646;BME280;46462;32.608;-117.032;2023-04-25T00:20:50;99054.16;;;25.76;41.79
60646;BME280;46462;32.608;-117.032;2023-04-25T00:23:21;99051.34;;;25.75;41.81
60646;BME280;46462;32.608;-117.032;2023-04-25T00:25:52;99048.03;;;25.75;41.79
60646;BME280;46462;32.608;-117.032;2023-04-25T00:28:22;99050.69;;;25.76;41.79
60646;BME280;46462;32.608;-117.032;2023-04-25T00:30:53;99051.88;;;25.73;41.86
60646;BME280;46462;32.608;-117.032;2023-04-25T00:33:24;99057.62;;;25.76;41.80
60646;BME280;46462;32.608;-117.032;2023-04-25T00:35:55;99063.00;;;25.78;41.75
60646;BME280;46462;32.608;-117.032;2023-04-25T00:38:25;99062.42;;;25.80;41.69
60646;BME280;46462;32.608;-117.032;2023-04-25T00:40:56;99062.41;;;25.80;41.73
60646;BME280;46462;32.608;-117.032;2023-04-25T00:43:27;99057.82;;;25.82;41.65
60646;BME280;46462;32.608;-117.032;2023-04-25T00:45:57;99056.01;;;25.82;41.67
60646;BME280;46462;32.608;-117.032;2023-04-25T00:48:28;99058.85;;;25.84;41.61
60646;BME280;46462;32.608;-117.032;2023-04-25T00:50:59;99061.06;;;25.87;41.53
60646;BME280;46462;32.608;-117.032;2023-04-25T00:53:30;99061.95;;;25.89;41.42
60646;BME280;46462;32.608;-117.032;2023-04-25T00:56:00;99059.49;;;25.90;41.37
60646;BME280;46462;32.608;-117.032;2023-04-25T00:58:31;99060.73;;;25.92;41.33
60646;BME280;46462;32.608;-117.032;2023-04-25T01:01:01;99057.64;;;25.93;41.32
60646;BME280;46462;32.608;-117.032;2023-04-25T01:03:33;99056.35;;;25.92;41.34
60646;BME280;46462;32.608;-117.032;2023-04-25T01:06:03;99058.68;;;25.97;41.21
60646;BME280;46462;32.608;-117.032;2023-04-25T01:08:34;99061.59;;;26.01;41.09
60646;BME280;46462;32.608;-117.032;2023-04-25T01:11:04;99059.01;;;26.03;41.04
60646;BME280;46462;32.608;-117.032;2023-04-25T01:13:35;99058.41;;;26.08;40.93
60646;BME280;46462;32.608;-117.032;2023-04-25T01:16:06;99060.95;;;26.13;40.82
60646;BME280;46462;32.608;-117.032;2023-04-25T01:18:37;99059.00;;;26.13;40.76
60646;BME280;46462;32.608;-117.032;2023-04-25T01:21:08;99058.52;;;26.13;40.73
60646;BME280;46462;32.608;-117.032;2023-04-25T01:23:38;99053.51;;;26.14;40.73
60646;BME280;46462;32.608;-117.032;2023-04-25T01:26:10;99057.60;;;26.14;40.74
60646;BME280;46462;32.608;-117.032;2023-04-25T01:28:40;99060.47;;;26.12;40.73
60646;BME280;46462;32.608;-117.032;2023-04-25T01:31:10;99059.96;;;26.12;40.70
60646;BME280;46462;32.608;-117.032;2023-04-25T01:33:41;99064.14;;;26.16;40.53
60646;BME280;46462;32.608;-117.032;2023-04-25T01:36:11;99066.67;;;26.18;40.45
60646;BME280;46462;32.608;-117.032;2023-04-25T01:38:42;99063.65;;;26.19;40.40
60646;BME280;46462;32.608;-117.032;2023-04-25T01:41:13;99063.02;;;26.20;40.36
60646;BME280;46462;32.608;-117.032;2023-04-25T01:43:43;99060.53;;;26.24;40.31
60646;BME280;46462;32.608;-117.032;2023-04-25T01:46:14;99056.56;;;26.23;40.28
60646;BME280;46462;32.608;-117.032;2023-04-25T01:48:45;99052.71;;;26.26;40.30
60646;BME280;46462;32.608;-117.032;2023-04-25T01:51:15;99054.83;;;26.23;40.25
60646;BME280;46462;32.608;-117.032;2023-04-25T01:53:46;99056.10;;;26.34;40.22
60646;BME280;46462;32.608;-117.032;2023-04-25T01:56:18;99052.11;;;26.28;40.22
60646;BME280;46462;32.608;-117.032;2023-04-25T01:58:48;99053.85;;;26.27;40.39
60646;BME280;46462;32.608;-117.032;2023-04-25T02:01:18;99057.07;;;26.30;40.18
60646;BME280;46462;32.608;-117.032;2023-04-25T02:03:49;99059.83;;;26.31;40.43
60646;BME280;46462;32.608;-117.032;2023-04-25T02:06:19;99059.41;;;26.31;40.53
60646;BME280;46462;32.608;-117.032;2023-04-25T02:08:50;99059.68;;;26.34;40.46
60646;BME280;46462;32.608;-117.032;2023-04-25T02:11:21;99057.28;;;26.34;40.45
60646;BME280;46462;32.608;-117.032;2023-04-25T02:13:52;99056.47;;;26.27;40.62
60646;BME280;46462;32.608;-117.032;2023-04-25T02:16:22;99060.98;;;26.32;40.48
60646;BME280;46462;32.608;-117.032;2023-04-25T02:18:53;99062.42;;;26.32;40.45
60646;BME280;46462;32.608;-117.032;2023-04-25T02:21:24;99058.70;;;26.29;40.55
60646;BME280;46462;32.608;-117.032;2023-04-25T02:23:54;99058.81;;;26.34;40.38
60646;BME280;46462;32.608;-117.032;2023-04-25T02:26:25;99058.55;;;26.31;40.44
60646;BME280;46462;32.608;-117.032;2023-04-25T02:28:57;99054.45;;;26.33;40.40
60646;BME280;46462;32.608;-117.032;2023-04-25T02:31:26;99049.56;;;26.35;40.35
60646;BME280;46462;32.608;-117.032;2023-04-25T02:33:57;99046.18;;;26.37;40.28
60646;BME280;46462;32.608;-117.032;2023-04-25T02:36:28;99045.22;;;26.29;40.43
60646;BME280;46462;32.608;-117.032;2023-04-25T02:38:58;99046.94;;;26.30;40.38
60646;BME280;46462;32.608;-117.032;2023-04-25T02:41:29;99047.52;;;26.30;40.38
60646;BME280;46462;32.608;-117.032;2023-04-25T02:44:00;99050.18;;;26.36;40.68
60646;BME280;46462;32.608;-117.032;2023-04-25T02:46:30;99050.12;;;26.29;43.26
60646;BME280;46462;32.608;-117.032;2023-04-25T02:49:01;99050.64;;;26.25;46.46
60646;BME280;46462;32.608;-117.032;2023-04-25T02:51:31;99047.45;;;26.16;46.32
60646;BME280;46462;32.608;-117.032;2023-04-25T02:54:03;99047.74;;;26.15;44.45
60646;BME280;46462;32.608;-117.032;2023-04-25T02:56:33;99051.49;;;26.13;43.72
60646;BME280;46462;32.608;-117.032;2023-04-25T02:59:04;99053.46;;;26.11;43.14
60646;BME280;46462;32.608;-117.032;2023-04-25T03:01:34;99054.96;;;26.09;42.86
60646;BME280;46462;32.608;-117.032;2023-04-25T03:04:05;99056.22;;;26.13;42.86
60646;BME280;46462;32.608;-117.032;2023-04-25T03:06:36;99058.94;;;26.13;42.88
60646;BME280;46462;32.608;-117.032;2023-04-25T03:09:07;99063.17;;;26.11;42.87
60646;BME280;46462;32.608;-117.032;2023-04-25T03:11:39;99068.81;;;26.13;42.81
60646;BME280;46462;32.608;-117.032;2023-04-25T03:14:08;99068.21;;;26.13;42.72
60646;BME280;46462;32.608;-117.032;2023-04-25T03:16:39;99072.72;;;26.10;42.71
60646;BME280;46462;32.608;-117.032;2023-04-25T03:19:10;99075.34;;;26.03;42.63
60646;BME280;46462;32.608;-117.032;2023-04-25T03:21:40;99077.21;;;26.03;42.54
60646;BME280;46462;32.608;-117.032;2023-04-25T03:24:11;99083.62;;;26.06;42.47
60646;BME280;46462;32.608;-117.032;2023-04-25T03:26:41;99085.08;;;26.05;42.45
60646;BME280;46462;32.608;-117.032;2023-04-25T03:29:12;99087.60;;;26.00;42.48
60646;BME280;46462;32.608;-117.032;2023-04-25T03:31:43;99093.01;;;25.97;42.55
60646;BME280;46462;32.608;-117.032;2023-04-25T03:34:14;99095.99;;;25.94;42.71
60646;BME280;46462;32.608;-117.032;2023-04-25T03:36:44;99096.59;;;25.91;42.70
60646;BME280;46462;32.608;-117.032;2023-04-25T03:39:15;99094.35;;;25.91;42.74
60646;BME280;46462;32.608;-117.032;2023-04-25T03:41:46;99096.47;;;25.89;42.73
60646;BME280;46462;32.608;-117.032;2023-04-25T03:44:17;99100.44;;;25.92;42.70
60646;BME280;46462;32.608;-117.032;2023-04-25T03:46:47;99106.58;;;25.86;42.85
60646;BME280;46462;32.608;-117.032;2023-04-25T03:49:18;99114.58;;;25.90;42.71
60646;BME280;46462;32.608;-117.032;2023-04-25T03:51:49;99119.31;;;25.87;42.83
60646;BME280;46462;32.608;-117.032;2023-04-25T03:54:19;99122.32;;;25.86;42.87
60646;BME280;46462;32.608;-117.032;2023-04-25T03:56:50;99122.80;;;25.81;42.98
60646;BME280;46462;32.608;-117.032;2023-04-25T03:59:21;99125.83;;;25.80;43.01
60646;BME280;46462;32.608;-117.032;2023-04-25T04:01:52;99129.57;;;25.82;42.86
60646;BME280;46462;32.608;-117.032;2023-04-25T04:04:22;99133.75;;;25.77;42.97
60646;BME280;46462;32.608;-117.032;2023-04-25T04:06:53;99142.04;;;25.78;42.85
60646;BME280;46462;32.608;-117.032;2023-04-25T04:09:24;99145.81;;;25.70;43.01
60646;BME280;46462;32.608;-117.032;2023-04-25T04:11:54;99150.91;;;25.68;43.01
60646;BME280;46462;32.608;-117.032;2023-04-25T04:14:25;99155.21;;;25.66;42.91
60646;BME280;46462;32.608;-117.032;2023-04-25T04:16:56;99160.66;;;25.61;42.96
60646;BME280;46462;32.608;-117.032;2023-04-25T04:19:27;99162.05;;;25.62;42.90
60646;BME280;46462;32.608;-117.032;2023-04-25T04:21:57;99160.67;;;25.67;42.77
60646;BME280;46462;32.608;-117.032;2023-04-25T04:24:28;99157.73;;;25.65;42.76
60646;BME280;46462;32.608;-117.032;2023-04-25T04:26:59;99157.16;;;25.60;42.83
60646;BME280;46462;32.608;-117.032;2023-04-25T04:29:29;99162.79;;;25.70;42.50
60646;BME280;46462;32.608;-117.032;2023-04-25T04:32:00;99166.37;;;25.69;42.47
60646;BME280;46462;32.608;-117.032;2023-04-25T04:34:31;99165.35;;;25.63;42.61
60646;BME280;46462;32.608;-117.032;2023-04-25T04:37:01;99166.51;;;25.62;42.58
60646;BME280;46462;32.608;-117.032;2023-04-25T04:39:32;99167.83;;;25.62;42.55
60646;BME280;46462;32.608;-117.032;2023-04-25T04:42:03;99171.45;;;25.54;42.67
60646;BME280;46462;32.608;-117.032;2023-04-25T04:44:34;99168.18;;;25.57;42.52
60646;BME280;46462;32.608;-117.032;2023-04-25T04:47:05;99169.00;;;25.54;42.57
60646;BME280;46462;32.608;-117.032;2023-04-25T04:49:35;99168.89;;;25.53;42.56
60646;BME280;46462;32.608;-117.032;2023-04-25T04:52:06;99168.49;;;25.56;42.42
60646;BME280;46462;32.608;-117.032;2023-04-25T04:54:36;99172.63;;;25.55;42.39
60646;BME280;46462;32.608;-117.032;2023-04-25T04:57:07;99175.36;;;25.53;42.28
60646;BME280;46462;32.608;-117.032;2023-04-25T04:59:38;99176.36;;;25.47;42.32
60646;BME280;46462;32.608;-117.032;2023-04-25T05:02:09;99177.56;;;25.48;42.27
60646;BME280;46462;32.608;-117.032;2023-04-25T05:04:41;99176.16;;;25.48;42.25
60646;BME280;46462;32.608;-117.032;2023-04-25T05:07:10;99175.83;;;25.47;42.23
60646;BME280;46462;32.608;-117.032;2023-04-25T05:09:41;99179.24;;;25.49;42.12
60646;BME280;46462;32.608;-117.032;2023-04-25T05:12:11;99178.78;;;25.53;41.98
60646;BME280;46462;32.608;-117.032;2023-04-25T05:14:42;99176.30;;;25.43;42.14
60646;BME280;46462;32.608;-117.032;2023-04-25T05:17:13;99177.58;;;25.46;42.03
60646;BME280;46462;32.608;-117.032;2023-04-25T05:19:44;99173.27;;;25.45;42.00
60646;BME280;46462;32.608;-117.032;2023-04-25T05:22:14;99174.17;;;25.47;41.93
60646;BME280;46462;32.608;-117.032;2023-04-25T05:24:45;99180.82;;;25.55;41.69
60646;BME280;46462;32.608;-117.032;2023-04-25T05:27:17;99179.54;;;25.43;41.89
60646;BME280;46462;32.608;-117.032;2023-04-25T05:29:47;99181.63;;;25.40;41.92
60646;BME280;46462;32.608;-117.032;2023-04-25T05:32:18;99187.67;;;25.41;41.82
60646;BME280;46462;32.608;-117.032;2023-04-25T05:34:48;99191.34;;;25.39;41.79
60646;BME280;46462;32.608;-117.032;2023-04-25T05:37:19;99191.35;;;25.39;41.75
60646;BME280;46462;32.608;-117.032;2023-04-25T05:39:50;99191.64;;;25.42;41.65
60646;BME280;46462;32.608;-117.032;2023-04-25T05:42:20;99187.50;;;25.43;41.57
60646;BME280;46462;32.608;-117.032;2023-04-25T05:44:51;99191.63;;;25.39;41.61
60646;BME280;46462;32.608;-117.032;2023-04-25T05:47:22;99194.57;;;25.42;41.52
60646;BME280;46462;32.608;-117.032;2023-04-25T05:49:52;99195.50;;;25.42;41.51
60646;BME280;46462;32.608;-117.032;2023-04-25T05:52:23;99188.64;;;25.38;41.53
60646;BME280;46462;32.608;-117.032;2023-04-25T05:54:54;99183.63;;;25.41;41.40
60646;BME280;46462;32.608;-117.032;2023-04-25T05:57:26;99182.36;;;25.39;41.40
60646;BME280;46462;32.608;-117.032;2023-04-25T05:59:55;99179.79;;;25.30;41.57
60646;BME280;46462;32.608;-117.032;2023-04-25T06:02:29;99169.33;;;25.30;41.49
60646;BME280;46462;32.608;-117.032;2023-04-25T06:04:57;99169.79;;;25.27;41.56
60646;BME280;46462;32.608;-117.032;2023-04-25T06:07:28;99166.07;;;25.25;41.55
60646;BME280;46462;32.608;-117.032;2023-04-25T06:09:58;99163.00;;;25.26;41.46
60646;BME280;46462;32.608;-117.032;2023-04-25T06:12:29;99159.92;;;25.30;41.35
60646;BME280;46462;32.608;-117.032;2023-04-25T06:15:00;99161.57;;;25.28;41.30
60646;BME280;46462;32.608;-117.032;2023-04-25T06:17:30;99160.31;;;25.29;41.24
60646;BME280;46462;32.608;-117.032;2023-04-25T06:20:01;99156.06;;;25.27;41.22
60646;BME280;46462;32.608;-117.032;2023-04-25T06:22:32;99158.58;;;25.30;41.13
60646;BME280;46462;32.608;-117.032;2023-04-25T06:25:07;99155.20;;;25.38;40.88
60646;BME280;46462;32.608;-117.032;2023-04-25T06:27:37;99154.81;;;25.28;41.10
60646;BME280;46462;32.608;-117.032;2023-04-25T06:30:08;99155.18;;;25.29;41.00
60646;BME280;46462;32.608;-117.032;2023-04-25T06:32:38;99157.65;;;25.30;40.96
60646;BME280;46462;32.608;-117.032;2023-04-25T06:35:09;99160.55;;;25.24;41.00
60646;BME280;46462;32.608;-117.032;2023-04-25T06:37:39;99163.94;;;25.23;41.04
60646;BME280;46462;32.608;-117.032;2023-04-25T06:40:10;99161.44;;;25.19;41.05
60646;BME280;46462;32.608;-117.032;2023-04-25T06:42:41;99163.49;;;25.25;40.88
60646;BME280;46462;32.608;-117.032;2023-04-25T06:45:11;99163.61;;;25.19;40.97
60646;BME280;46462;32.608;-117.032;2023-04-25T06:47:42;99160.24;;;25.23;40.83
60646;BME280;46462;32.608;-117.032;2023-04-25T06:50:13;99162.79;;;25.18;40.86
60646;BME280;46462;32.608;-117.032;2023-04-25T06:52:44;99162.91;;;25.15;40.95
60646;BME280;46462;32.608;-117.032;2023-04-25T06:55:14;99166.18;;;25.15;40.89
60646;BME280;46462;32.608;-117.032;2023-04-25T06:57:45;99165.43;;;25.28;40.55
60646;BME280;46462;32.608;-117.032;2023-04-25T07:00:17;99166.02;;;25.27;40.52
60646;BME280;46462;32.608;-117.032;2023-04-25T07:02:47;99163.72;;;25.26;40.48
60646;BME280;46462;32.608;-117.032;2023-04-25T07:05:18;99166.09;;;25.25;40.42
60646;BME280;46462;32.608;-117.032;2023-04-25T07:07:48;99165.63;;;25.24;40.45
60646;BME280;46462;32.608;-117.032;2023-04-25T07:10:19;99166.07;;;25.24;40.39
60646;BME280;46462;32.608;-117.032;2023-04-25T07:12:50;99163.68;;;25.28;40.23
60646;BME280;46462;32.608;-117.032;2023-04-25T07:15:20;99164.18;;;25.23;40.31
60646;BME280;46462;32.608;-117.032;2023-04-25T07:17:51;99165.78;;;25.18;40.40
60646;BME280;46462;32.608;-117.032;2023-04-25T07:20:22;99166.19;;;25.26;40.15
60646;BME280;46462;32.608;-117.032;2023-04-25T07:22:52;99162.53;;;25.18;40.26
60646;BME280;46462;32.608;-117.032;2023-04-25T07:25:23;99161.66;;;25.05;40.46
60646;BME280;46462;32.608;-117.032;2023-04-25T07:27:54;99157.21;;;25.25;40.08
60646;BME280;46462;32.608;-117.032;2023-04-25T07:30:25;99156.97;;;25.11;40.30
60646;BME280;46462;32.608;-117.032;2023-04-25T07:32:56;99152.94;;;25.12;40.25
60646;BME280;46462;32.608;-117.032;2023-04-25T07:35:27;99149.24;;;25.12;40.21
60646;BME280;46462;32.608;-117.032;2023-04-25T07:37:57;99143.52;;;25.18;40.05
60646;BME280;46462;32.608;-117.032;2023-04-25T07:40:28;99146.94;;;25.15;40.09
60646;BME280;46462;32.608;-117.032;2023-04-25T07:42:58;99144.97;;;25.16;40.03
60646;BME280;46462;32.608;-117.032;2023-04-25T07:45:29;99142.53;;;25.19;39.95
60646;BME280;46462;32.608;-117.032;2023-04-25T07:48:00;99139.80;;;25.13;40.04
60646;BME280;46462;32.608;-117.032;2023-04-25T07:50:31;99142.37;;;25.07;40.15
60646;BME280;46462;32.608;-117.032;2023-04-25T07:53:02;99145.58;;;25.04;40.17
60646;BME280;46462;32.608;-117.032;2023-04-25T07:55:32;99147.14;;;25.00;40.23
60646;BME280;46462;32.608;-117.032;2023-04-25T07:58:03;99146.79;;;24.96;40.27
60646;BME280;46462;32.608;-117.032;2023-04-25T08:00:34;99146.81;;;25.01;40.15
60646;BME280;46462;32.608;-117.032;2023-04-25T08:03:04;99145.34;;;24.93;40.25
60646;BME280;46462;32.608;-117.032;2023-04-25T08:05:35;99141.92;;;24.90;40.30
60646;BME280;46462;32.608;-117.032;2023-04-25T08:08:06;99142.31;;;24.98;40.08
60646;BME280;46462;32.608;-117.032;2023-04-25T08:10:37;99143.33;;;24.90;40.19
60646;BME280;46462;32.608;-117.032;2023-04-25T08:13:07;99143.01;;;24.93;40.10
60646;BME280;46462;32.608;-117.032;2023-04-25T08:15:38;99141.40;;;24.91;40.10
60646;BME280;46462;32.608;-117.032;2023-04-25T08:18:09;99144.31;;;24.94;40.01
60646;BME280;46462;32.608;-117.032;2023-04-25T08:20:40;99144.89;;;24.93;40.02
60646;BME280;46462;32.608;-117.032;2023-04-25T08:23:10;99144.65;;;24.93;39.99
60646;BME280;46462;32.608;-117.032;2023-04-25T08:25:41;99142.63;;;24.92;39.94
60646;BME280;46462;32.608;-117.032;2023-04-25T08:28:12;99141.69;;;24.86;40.05
60646;BME280;46462;32.608;-117.032;2023-04-25T08:30:43;99138.19;;;24.86;40.02
60646;BME280;46462;32.608;-117.032;2023-04-25T08:33:13;99131.27;;;24.80;40.10
60646;BME280;46462;32.608;-117.032;2023-04-25T08:35:45;99125.44;;;24.81;40.06
60646;BME280;46462;32.608;-117.032;2023-04-25T08:38:15;99125.15;;;24.81;40.02
60646;BME280;46462;32.608;-117.032;2023-04-25T08:40:50;99127.80;;;24.74;40.12
60646;BME280;46462;32.608;-117.032;2023-04-25T08:43:19;99127.69;;;24.79;40.05
60646;BME280;46462;32.608;-117.032;2023-04-25T08:45:48;99127.82;;;24.78;40.03
60646;BME280;46462;32.608;-117.032;2023-04-25T08:48:18;99130.02;;;24.81;39.92
60646;BME280;46462;32.608;-117.032;2023-04-25T08:50:51;99126.85;;;24.79;39.92
60646;BME280;46462;32.608;-117.032;2023-04-25T08:53:25;99127.74;;;24.77;39.93
60646;BME280;46462;32.608;-117.032;2023-04-25T08:55:50;99124.09;;;24.79;39.92
60646;BME280;46462;32.608;-117.032;2023-04-25T08:58:21;99123.24;;;24.78;39.92
60646;BME280;46462;32.608;-117.032;2023-04-25T09:00:52;99122.99;;;24.74;39.94
60646;BME280;46462;32.608;-117.032;2023-04-25T09:03:22;99122.31;;;24.70;40.04
60646;BME280;46462;32.608;-117.032;2023-04-25T09:05:54;99118.02;;;24.73;39.95
60646;BME280;46462;32.608;-117.032;2023-04-25T09:08:24;99116.05;;;24.76;39.85
60646;BME280;46462;32.608;-117.032;2023-04-25T09:10:54;99116.60;;;24.71;39.95
60646;BME280;46462;32.608;-117.032;2023-04-25T09:13:28;99113.75;;;24.68;39.99
60646;BME280;46462;32.608;-117.032;2023-04-25T09:15:57;99107.46;;;24.68;39.94
60646;BME280;46462;32.608;-117.032;2023-04-25T09:18:28;99104.80;;;24.69;39.87
60646;BME280;46462;32.608;-117.032;2023-04-25T09:21:05;99105.52;;;24.61;40.00
60646;BME280;46462;32.608;-117.032;2023-04-25T09:23:28;99100.99;;;24.61;39.97
60646;BME280;46462;32.608;-117.032;2023-04-25T09:25:59;99097.34;;;24.50;40.18
60646;BME280;46462;32.608;-117.032;2023-04-25T09:28:30;99094.90;;;24.52;40.11
60646;BME280;46462;32.608;-117.032;2023-04-25T09:31:01;99095.25;;;24.54;40.06
60646;BME280;46462;32.608;-117.032;2023-04-25T09:33:33;99094.58;;;24.48;40.13
60646;BME280;46462;32.608;-117.032;2023-04-25T09:36:03;99092.36;;;24.49;40.08
60646;BME280;46462;32.608;-117.032;2023-04-25T09:41:03;99081.30;;;24.48;40.07
60646;BME280;46462;32.608;-117.032;2023-04-25T09:43:34;99079.47;;;24.43;40.14
60646;BME280;46462;32.608;-117.032;2023-04-25T09:46:09;99072.70;;;24.41;40.16
60646;BME280;46462;32.608;-117.032;2023-04-25T09:48:36;99068.33;;;24.45;40.05
60646;BME280;46462;32.608;-117.032;2023-04-25T09:51:08;99067.85;;;24.40;40.17
60646;BME280;46462;32.608;-117.032;2023-04-25T09:53:39;99067.29;;;24.38;40.14
60646;BME280;46462;32.608;-117.032;2023-04-25T09:56:09;99066.66;;;24.43;40.04
60646;BME280;46462;32.608;-117.032;2023-04-25T09:58:45;99064.75;;;24.42;40.02
60646;BME280;46462;32.608;-117.032;2023-04-25T10:01:10;99062.31;;;24.40;40.05
60646;BME280;46462;32.608;-117.032;2023-04-25T10:03:40;99060.03;;;24.38;40.07
60646;BME280;46462;32.608;-117.032;2023-04-25T10:06:15;99060.99;;;24.38;40.09
60646;BME280;46462;32.608;-117.032;2023-04-25T10:08:42;99067.18;;;24.35;40.07
60646;BME280;46462;32.608;-117.032;2023-04-25T10:11:13;99068.56;;;24.25;40.25
60646;BME280;46462;32.608;-117.032;2023-04-25T10:13:43;99066.36;;;24.27;40.23
60646;BME280;46462;32.608;-117.032;2023-04-25T10:16:14;99067.68;;;24.33;40.07
60646;BME280;46462;32.608;-117.032;2023-04-25T10:18:45;99066.33;;;24.33;40.01
60646;BME280;46462;32.608;-117.032;2023-04-25T10:21:16;99063.19;;;24.29;40.10
60646;BME280;46462;32.608;-117.032;2023-04-25T10:23:46;99063.83;;;24.39;39.90
60646;BME280;46462;32.608;-117.032;2023-04-25T10:26:17;99066.30;;;24.37;39.92
60646;BME280;46462;32.608;-117.032;2023-04-25T10:28:55;99065.47;;;24.36;39.93
60646;BME280;46462;32.608;-117.032;2023-04-25T10:31:18;99060.89;;;24.34;39.96
60646;BME280;46462;32.608;-117.032;2023-04-25T10:33:49;99058.80;;;24.33;39.95
60646;BME280;46462;32.608;-117.032;2023-04-25T10:36:21;99056.39;;;24.31;39.95
60646;BME280;46462;32.608;-117.032;2023-04-25T10:38:51;99052.44;;;24.35;39.83
60646;BME280;46462;32.608;-117.032;2023-04-25T10:41:22;99055.89;;;24.30;39.89
60646;BME280;46462;32.608;-117.032;2023-04-25T10:44:00;99052.01;;;24.30;39.89
60646;BME280;46462;32.608;-117.032;2023-04-25T10:46:24;99046.33;;;24.39;39.69
60646;BME280;46462;32.608;-117.032;2023-04-25T10:48:55;99046.93;;;24.32;39.80
60646;BME280;46462;32.608;-117.032;2023-04-25T10:51:26;99045.40;;;24.24;39.92
60646;BME280;46462;32.608;-117.032;2023-04-25T10:54:00;99046.03;;;24.29;39.82
60646;BME280;46462;32.608;-117.032;2023-04-25T10:56:27;99046.70;;;24.30;39.78
60646;BME280;46462;32.608;-117.032;2023-04-25T11:01:27;99052.81;;;24.20;39.94
60646;BME280;46462;32.608;-117.032;2023-04-25T11:03:59;99052.69;;;24.11;40.05
60646;BME280;46462;32.608;-117.032;2023-04-25T11:06:34;99053.94;;;24.09;40.12
60646;BME280;46462;32.608;-117.032;2023-04-25T11:09:01;99054.02;;;24.09;40.11
60646;BME280;46462;32.608;-117.032;2023-04-25T11:11:30;99051.53;;;24.12;40.00
60646;BME280;46462;32.608;-117.032;2023-04-25T11:14:01;99048.65;;;24.13;39.96
60646;BME280;46462;32.608;-117.032;2023-04-25T11:16:32;99051.89;;;24.07;40.06
60646;BME280;46462;32.608;-117.032;2023-04-25T11:19:03;99052.29;;;24.01;40.18
60646;BME280;46462;32.608;-117.032;2023-04-25T11:21:33;99051.35;;;24.00;40.19
60646;BME280;46462;32.608;-117.032;2023-04-25T11:24:05;99053.56;;;23.94;40.29
60646;BME280;46462;32.608;-117.032;2023-04-25T11:26:35;99057.22;;;23.97;40.22
60646;BME280;46462;32.608;-117.032;2023-04-25T11:29:05;99058.91;;;23.90;40.35
60646;BME280;46462;32.608;-117.032;2023-04-25T11:31:36;99058.46;;;23.97;40.19
60646;BME280;46462;32.608;-117.032;2023-04-25T11:34:07;99056.59;;;24.02;40.05
60646;BME280;46462;32.608;-117.032;2023-04-25T11:36:38;99056.10;;;23.97;40.14
60646;BME280;46462;32.608;-117.032;2023-04-25T11:39:08;99055.78;;;23.92;40.22
60646;BME280;46462;32.608;-117.032;2023-04-25T11:41:39;99056.46;;;23.96;40.10
60646;BME280;46462;32.608;-117.032;2023-04-25T11:44:10;99060.65;;;23.88;40.25
60646;BME280;46462;32.608;-117.032;2023-04-25T11:46:41;99063.88;;;23.83;40.35
60646;BME280;46462;32.608;-117.032;2023-04-25T11:49:12;99065.49;;;23.86;40.27
60646;BME280;46462;32.608;-117.032;2023-04-25T11:51:44;99064.17;;;23.89;40.21
60646;BME280;46462;32.608;-117.032;2023-04-25T11:54:13;99065.49;;;24.01;39.97
60646;BME280;46462;32.608;-117.032;2023-04-25T11:56:45;99066.54;;;24.06;39.82
60646;BME280;46462;32.608;-117.032;2023-04-25T11:59:15;99063.82;;;23.96;40.00
60646;BME280;46462;32.608;-117.032;2023-04-25T12:01:49;99062.96;;;23.93;40.00
60646;BME280;46462;32.608;-117.032;2023-04-25T12:04:18;99064.62;;;23.90;40.07
60646;BME280;46462;32.608;-117.032;2023-04-25T12:06:49;99067.96;;;23.83;40.14
60646;BME280;46462;32.608;-117.032;2023-04-25T12:09:19;99066.56;;;23.90;40.04
60646;BME280;46462;32.608;-117.032;2023-04-25T12:11:53;99067.14;;;23.94;39.92
60646;BME280;46462;32.608;-117.032;2023-04-25T12:14:23;99064.50;;;23.95;39.84
60646;BME280;46462;32.608;-117.032;2023-04-25T12:16:50;99066.15;;;23.88;39.95
60646;BME280;46462;32.608;-117.032;2023-04-25T12:19:21;99065.15;;;23.83;40.01
60646;BME280;46462;32.608;-117.032;2023-04-25T12:21:52;99068.19;;;23.82;40.06
60646;BME280;46462;32.608;-117.032;2023-04-25T12:24:23;99075.40;;;23.77;40.13
60646;BME280;46462;32.608;-117.032;2023-04-25T12:26:58;99078.54;;;23.82;40.01
60646;BME280;46462;32.608;-117.032;2023-04-25T12:29:24;99075.31;;;23.82;39.96
60646;BME280;46462;32.608;-117.032;2023-04-25T12:31:55;99080.42;;;23.78;40.04
60646;BME280;46462;32.608;-117.032;2023-04-25T12:34:25;99084.06;;;23.79;40.00
60646;BME280;46462;32.608;-117.032;2023-04-25T12:36:56;99087.13;;;23.87;39.82
60646;BME280;46462;32.608;-117.032;2023-04-25T12:39:26;99089.81;;;23.79;39.93
60646;BME280;46462;32.608;-117.032;2023-04-25T12:41:57;99088.48;;;23.76;40.00
60646;BME280;46462;32.608;-117.032;2023-04-25T12:44:28;99085.50;;;23.74;40.01
60646;BME280;46462;32.608;-117.032;2023-04-25T12:46:59;99082.58;;;23.73;40.02
60646;BME280;46462;32.608;-117.032;2023-04-25T12:49:30;99081.93;;;23.67;40.12
60646;BME280;46462;32.608;-117.032;2023-04-25T12:52:00;99085.71;;;23.73;40.00